createdAt,value
2018-11-01T00:01:10.015Z,98683.32
2018-11-01T00:03:38.476Z,98680.27
2018-11-01T00:06:07.041Z,98675.70
2018-11-01T00:08:35.537Z,98675.70
2018-11-01T00:11:05.376Z,98680.89
2018-11-01T00:13:33.841Z,98681.52
2018-11-01T00:16:02.487Z,98673.72
2018-11-01T00:18:31.000Z,98616.13
2018-11-01T00:20:59.529Z,98695.77
2018-11-01T00:23:27.976Z,98694.95
2018-11-01T00:25:56.912Z,98711.75
2018-11-01T00:28:25.422Z,98708.27
2018-11-01T00:30:53.883Z,98702.20
2018-11-01T00:33:22.391Z,98711.36
2018-11-01T00:35:50.919Z,98714.22
2018-11-01T00:38:19.415Z,98711.09
2018-11-01T00:40:48.351Z,98709.23
2018-11-01T00:43:16.983Z,98719.20
2018-11-01T00:45:45.513Z,98717.20
2018-11-01T00:48:14.203Z,98716.58
2018-11-01T00:50:43.519Z,98706.59
2018-11-01T00:53:12.220Z,98707.03
2018-11-01T00:55:41.437Z,98707.78
2018-11-01T00:58:09.922Z,98694.66
2018-11-01T01:00:38.742Z,98702.30
2018-11-01T01:03:07.396Z,98700.76
2018-11-01T01:05:35.819Z,98704.95
2018-11-01T01:08:04.553Z,98700.03
2018-11-01T01:10:33.116Z,98704.50
2018-11-01T01:13:01.565Z,98697.44
2018-11-01T01:15:30.039Z,98709.84
2018-11-01T01:17:58.512Z,98714.02
2018-11-01T01:20:27.007Z,98704.07
2018-11-01T01:22:55.894Z,98692.78
2018-11-01T01:25:26.585Z,98699.88
2018-11-01T01:27:55.046Z,98701.98
2018-11-01T01:30:23.625Z,98689.96
2018-11-01T01:32:52.101Z,98688.66
2018-11-01T01:35:20.625Z,98682.61
2018-11-01T01:37:49.104Z,98682.67
2018-11-01T01:40:17.572Z,98671.89
2018-11-01T01:42:51.916Z,98668.80
2018-11-01T01:45:20.822Z,98657.63
2018-11-01T01:47:49.407Z,98661.62
2018-11-01T01:50:18.697Z,98659.34
2018-11-01T01:52:47.570Z,98657.52
2018-11-01T01:55:16.790Z,98654.61
2018-11-01T01:57:45.272Z,98659.78
2018-11-01T02:00:15.498Z,98654.88
2018-11-01T02:02:46.385Z,98657.50
2018-11-01T02:05:14.868Z,98652.25
2018-11-01T02:07:43.319Z,98656.94
2018-11-01T02:10:14.244Z,98654.42
2018-11-01T02:12:42.731Z,98647.79
2018-11-01T02:15:13.452Z,98643.09
2018-11-01T02:17:42.471Z,98646.20
2018-11-01T02:20:12.607Z,98648.31
2018-11-01T02:22:41.855Z,98650.75
2018-11-01T02:25:10.635Z,98661.48
2018-11-01T02:27:44.304Z,98663.46
2018-11-01T02:30:14.540Z,98667.47
2018-11-01T02:32:43.608Z,98662.34
2018-11-01T02:35:14.020Z,98663.48
2018-11-01T02:37:42.857Z,98662.23
2018-11-01T02:40:12.904Z,98671.69
2018-11-01T02:42:42.038Z,98671.17
2018-11-01T02:45:11.606Z,98646.63
2018-11-01T02:47:41.086Z,98642.02
2018-11-01T02:50:10.603Z,98633.08
2018-11-01T02:52:39.556Z,98623.16
2018-11-01T02:55:08.919Z,98619.53
2018-11-01T02:57:37.381Z,98606.13
2018-11-01T03:00:10.264Z,98608.64
2018-11-01T03:02:38.707Z,98610.41
2018-11-01T03:05:07.970Z,98603.48
2018-11-01T03:07:36.473Z,98603.03
2018-11-01T03:10:05.928Z,98596.23
2018-11-01T03:12:34.352Z,98592.06
2018-11-01T03:15:02.851Z,98599.37
2018-11-01T03:17:31.292Z,98607.41
2018-11-01T03:19:59.811Z,98598.34
2018-11-01T03:22:28.248Z,98596.39
2018-11-01T03:24:56.810Z,98596.14
2018-11-01T03:27:25.987Z,98599.06
2018-11-01T03:29:54.555Z,98604.47
2018-11-01T03:32:23.559Z,98603.16
2018-11-01T03:34:52.023Z,98600.80
2018-11-01T03:37:20.470Z,98586.81
2018-11-01T03:39:48.975Z,98582.48
2018-11-01T03:42:17.454Z,98580.84
2018-11-01T03:44:46.127Z,98573.73
2018-11-01T03:47:14.664Z,98560.57
2018-11-01T03:49:43.143Z,98566.68
2018-11-01T03:52:11.682Z,98579.37
2018-11-01T03:54:40.330Z,98587.73
2018-11-01T03:57:08.796Z,98583.39
2018-11-01T03:59:37.260Z,98593.00
2018-11-01T04:02:06.176Z,98610.11
2018-11-01T04:04:34.764Z,98616.08
2018-11-01T04:07:03.322Z,98619.59
2018-11-01T04:09:33.057Z,98609.38
2018-11-01T04:12:01.637Z,98594.81
2018-11-01T04:14:30.291Z,98597.90
2018-11-01T04:16:58.798Z,98604.39
2018-11-01T04:19:27.524Z,98608.86
2018-11-01T04:22:01.354Z,98605.20
2018-11-01T04:24:29.810Z,98602.80
2018-11-01T04:26:58.236Z,98606.08
2018-11-01T04:29:27.088Z,98614.18
2018-11-01T04:31:55.555Z,98610.36
2018-11-01T04:34:24.531Z,98610.30
2018-11-01T04:36:52.960Z,98610.66
2018-11-01T04:39:21.493Z,98611.80
2018-11-01T04:41:50.035Z,98604.49
2018-11-01T04:44:18.513Z,98603.34
2018-11-01T04:46:47.169Z,98617.58
2018-11-01T04:49:16.018Z,98612.85
2018-11-01T04:51:44.763Z,98608.27
2018-11-01T04:54:13.591Z,98618.03
2018-11-01T04:56:42.103Z,98604.64
2018-11-01T04:59:10.572Z,98607.18
2018-11-01T05:01:39.226Z,98599.31
2018-11-01T05:04:07.679Z,98601.57
2018-11-01T05:06:36.123Z,98601.31
2018-11-01T05:09:05.506Z,98602.46
2018-11-01T05:11:34.017Z,98596.45
2018-11-01T05:14:02.439Z,98596.41
2018-11-01T05:16:32.891Z,98597.49
2018-11-01T05:19:16.802Z,98604.73
2018-11-01T05:21:46.231Z,98603.88
2018-11-01T05:24:14.680Z,98607.89
2018-11-01T05:26:43.219Z,98606.86
2018-11-01T05:29:12.248Z,98613.67
2018-11-01T05:31:40.772Z,98609.41
2018-11-01T05:34:09.321Z,98613.22
2018-11-01T05:36:37.804Z,98618.91
2018-11-01T05:39:09.609Z,98613.74
2018-11-01T05:41:38.129Z,98623.03
2018-11-01T05:44:06.598Z,98617.85
2018-11-01T05:46:35.097Z,98612.96
2018-11-01T05:49:06.596Z,98615.53
2018-11-01T05:51:35.114Z,98625.49
2018-11-01T05:54:03.881Z,98624.80
2018-11-01T05:56:32.347Z,98613.53
2018-11-01T05:59:00.778Z,98572.94
2018-11-01T06:01:32.823Z,98604.59
2018-11-01T06:04:01.669Z,98607.63
2018-11-01T06:06:30.172Z,98600.84
2018-11-01T06:08:59.864Z,98589.92
2018-11-01T06:11:28.367Z,98558.92
2018-11-01T06:13:56.822Z,98587.73
2018-11-01T06:16:25.306Z,98597.80
2018-11-01T06:18:53.865Z,98589.67
2018-11-01T06:21:22.284Z,98589.02
2018-11-01T06:23:50.769Z,98588.57
2018-11-01T06:26:19.211Z,98572.55
2018-11-01T06:28:47.738Z,98569.06
2018-11-01T06:31:16.276Z,98562.88
2018-11-01T06:33:45.107Z,98558.66
2018-11-01T06:36:15.236Z,98563.81
2018-11-01T06:38:44.307Z,98566.68
2018-11-01T06:41:12.772Z,98572.25
2018-11-01T06:43:41.322Z,98583.36
2018-11-01T06:46:10.320Z,98590.83
2018-11-01T06:48:39.234Z,98597.39
2018-11-01T06:51:07.969Z,98598.65
2018-11-01T06:53:36.448Z,98595.12
2018-11-01T06:56:05.256Z,98600.61
2018-11-01T06:58:34.624Z,98599.37
2018-11-01T07:01:03.009Z,98594.11
2018-11-01T07:03:31.529Z,98598.27
2018-11-01T07:06:00.216Z,98604.77
2018-11-01T07:08:28.668Z,98612.93
2018-11-01T07:10:57.175Z,98621.21
2018-11-01T07:13:25.671Z,98608.19
2018-11-01T07:15:54.903Z,98607.84
2018-11-01T07:18:23.471Z,98614.28
2018-11-01T07:20:51.988Z,98604.64
2018-11-01T07:23:20.675Z,98600.80
2018-11-01T07:25:49.310Z,98600.98
2018-11-01T07:28:17.912Z,98596.25
2018-11-01T07:30:46.572Z,98595.78
2018-11-01T07:33:15.152Z,98603.05
2018-11-01T07:35:43.779Z,98603.93
2018-11-01T07:38:12.932Z,98596.39
2018-11-01T07:40:41.592Z,98589.08
2018-11-01T07:43:10.120Z,98591.92
2018-11-01T07:45:38.703Z,98588.85
2018-11-01T07:48:07.464Z,98580.87
2018-11-01T07:50:35.980Z,98580.94
2018-11-01T07:53:05.330Z,98574.16
2018-11-01T07:55:33.773Z,98583.76
2018-11-01T07:58:02.274Z,98600.14
2018-11-01T08:00:31.032Z,98614.14
2018-11-01T08:02:59.900Z,98613.42
2018-11-01T08:05:28.462Z,98612.35
2018-11-01T08:07:57.179Z,98618.64
2018-11-01T08:10:25.871Z,98614.02
2018-11-01T08:12:54.457Z,98608.27
2018-11-01T08:15:22.911Z,98608.28
2018-11-01T08:17:52.088Z,98609.73
2018-11-01T08:20:20.968Z,98612.12
2018-11-01T08:22:49.303Z,98608.64
2018-11-01T08:25:17.832Z,98609.24
2018-11-01T08:27:46.354Z,98614.14
2018-11-01T08:30:16.296Z,98625.62
2018-11-01T08:32:44.808Z,98626.83
2018-11-01T08:35:13.582Z,98629.56
2018-11-01T08:37:43.145Z,98627.66
2018-11-01T08:40:12.309Z,98634.72
2018-11-01T08:42:41.286Z,98638.55
2018-11-01T08:45:11.748Z,98646.56
2018-11-01T08:47:40.819Z,98644.08
2018-11-01T08:50:10.989Z,98644.91
2018-11-01T08:52:40.022Z,98649.42
2018-11-01T08:55:09.172Z,98644.42
2018-11-01T08:57:37.679Z,98643.73
2018-11-01T09:00:07.644Z,98641.46
2018-11-01T09:02:36.071Z,98642.77
2018-11-01T09:05:04.595Z,98644.78
2018-11-01T09:07:33.192Z,98635.88
2018-11-01T09:10:01.698Z,98631.13
2018-11-01T09:12:30.243Z,98623.72
2018-11-01T09:14:58.657Z,98616.02
2018-11-01T09:17:27.115Z,98624.01
2018-11-01T09:19:55.628Z,98633.83
2018-11-01T09:22:24.359Z,98645.00
2018-11-01T09:24:52.841Z,98657.80
2018-11-01T09:27:21.280Z,98655.36
2018-11-01T09:29:49.769Z,98674.81
2018-11-01T09:32:18.189Z,98682.14
2018-11-01T09:34:46.797Z,98674.41
2018-11-01T09:37:15.254Z,98683.47
2018-11-01T09:39:44.315Z,98684.52
2018-11-01T09:42:12.792Z,98680.83
2018-11-01T09:44:42.074Z,98661.16
2018-11-01T09:47:10.962Z,98664.02
2018-11-01T09:49:39.280Z,98673.56
2018-11-01T09:52:07.915Z,98669.70
2018-11-01T09:54:36.400Z,98678.13
2018-11-01T09:57:05.528Z,98679.35
2018-11-01T09:59:34.026Z,98686.39
2018-11-01T10:02:04.045Z,98677.67
2018-11-01T10:04:32.573Z,98680.98
2018-11-01T10:07:01.119Z,98687.17
2018-11-01T10:09:29.497Z,98673.33
2018-11-01T10:11:57.946Z,98679.77
2018-11-01T10:14:26.434Z,98681.02
2018-11-01T10:16:55.817Z,98670.14
2018-11-01T10:19:24.619Z,98673.89
2018-11-01T10:21:53.277Z,98673.86
2018-11-01T10:24:21.715Z,98663.56
2018-11-01T10:26:50.449Z,98655.97
2018-11-01T10:29:18.888Z,98634.48
2018-11-01T10:31:47.397Z,98628.57
2018-11-01T10:34:15.935Z,98630.66
2018-11-01T10:36:44.434Z,98632.63
2018-11-01T10:39:12.868Z,98622.83
2018-11-01T10:41:41.361Z,98624.80
2018-11-01T10:44:10.495Z,98627.86
2018-11-01T10:46:38.958Z,98618.85
2018-11-01T10:49:07.405Z,98609.07
2018-11-01T10:51:36.219Z,98600.47
2018-11-01T10:54:05.817Z,98597.36
2018-11-01T10:56:34.557Z,98600.39
2018-11-01T10:59:03.388Z,98585.56
2018-11-01T11:01:42.724Z,98602.15
2018-11-01T11:04:11.562Z,98606.62
2018-11-01T11:06:41.367Z,98602.81
2018-11-01T11:09:10.296Z,98603.67
2018-11-01T11:11:39.570Z,98604.08
2018-11-01T11:14:09.092Z,98607.46
2018-11-01T11:16:38.306Z,98609.10
2018-11-01T11:19:07.510Z,98610.02
2018-11-01T11:21:36.230Z,98616.02
2018-11-01T11:24:05.465Z,98613.34
2018-11-01T11:26:33.910Z,98619.88
2018-11-01T11:29:03.166Z,98620.55
2018-11-01T11:31:32.334Z,98637.06
2018-11-01T11:34:01.543Z,98637.55
2018-11-01T11:36:30.060Z,98646.55
2018-11-01T11:38:58.579Z,98642.34
2018-11-01T11:41:27.083Z,98646.64
2018-11-01T11:43:55.543Z,98659.61
2018-11-01T11:46:24.844Z,98657.61
2018-11-01T11:48:54.724Z,98660.33
2018-11-01T11:51:23.229Z,98674.07
2018-11-01T11:53:51.708Z,98682.99
2018-11-01T11:56:20.911Z,98682.56
2018-11-01T11:58:49.450Z,98679.15
2018-11-01T12:01:17.902Z,98671.69
2018-11-01T12:03:46.376Z,98680.73
2018-11-01T12:06:14.959Z,98681.25
2018-11-01T12:08:43.371Z,98680.77
2018-11-01T12:11:12.023Z,98675.18
2018-11-01T12:13:40.627Z,98683.55
2018-11-01T12:16:09.128Z,98681.25
2018-11-01T12:18:37.680Z,98688.63
2018-11-01T12:21:06.126Z,98692.17
2018-11-01T12:23:34.588Z,98690.30
2018-11-01T12:26:03.231Z,98695.89
2018-11-01T12:28:32.275Z,98694.91
2018-11-01T12:31:00.694Z,98688.15
2018-11-01T12:33:29.799Z,98688.06
2018-11-01T12:35:59.009Z,98684.44
2018-11-01T12:38:27.606Z,98679.99
2018-11-01T12:40:57.008Z,98683.58
2018-11-01T12:43:25.526Z,98681.87
2018-11-01T12:45:54.179Z,98679.75
2018-11-01T12:48:22.655Z,98679.91
2018-11-01T12:50:51.126Z,98675.64
2018-11-01T12:53:19.681Z,98686.22
2018-11-01T12:55:48.108Z,98686.12
2018-11-01T12:58:16.623Z,98678.47
2018-11-01T13:00:45.742Z,98672.66
2018-11-01T13:03:15.265Z,98661.75
2018-11-01T13:05:44.554Z,98661.97
2018-11-01T13:08:13.024Z,98660.25
2018-11-01T13:10:42.099Z,98658.50
2018-11-01T13:13:10.589Z,98657.89
2018-11-01T13:15:39.079Z,98651.38
2018-11-01T13:18:07.592Z,98651.21
2018-11-01T13:20:36.063Z,98640.17
2018-11-01T13:23:04.539Z,98643.31
2018-11-01T13:25:33.064Z,98638.58
2018-11-01T13:28:01.571Z,98628.56
2018-11-01T13:30:30.057Z,98622.08
2018-11-01T13:32:58.753Z,98597.03
2018-11-01T13:35:27.303Z,98602.05
2018-11-01T13:37:55.717Z,98591.09
2018-11-01T13:40:25.149Z,98587.64
2018-11-01T13:42:53.340Z,98591.97
2018-11-01T13:45:21.849Z,98599.59
2018-11-01T13:47:50.358Z,98601.20
2018-11-01T13:50:18.908Z,98600.03
2018-11-01T13:52:47.343Z,98603.52
2018-11-01T13:55:15.867Z,98603.31
2018-11-01T13:57:45.388Z,98601.61
2018-11-01T14:00:14.858Z,98605.62
2018-11-01T14:02:43.818Z,98609.82
2018-11-01T14:05:13.659Z,98605.89
2018-11-01T14:07:42.856Z,98606.20
2018-11-01T14:10:14.786Z,98609.48
2018-11-01T14:12:43.649Z,98615.42
2018-11-01T14:15:12.921Z,98619.05
2018-11-01T14:17:42.021Z,98628.25
2018-11-01T14:20:12.312Z,98629.52
2018-11-01T14:22:41.401Z,98626.08
2018-11-01T14:25:13.150Z,98623.28
2018-11-01T14:27:41.902Z,98623.04
2018-11-01T14:30:13.053Z,98620.28
2018-11-01T14:32:41.760Z,98613.13
2018-11-01T14:35:11.692Z,98605.63
2018-11-01T14:37:40.338Z,98618.56
2018-11-01T14:40:10.926Z,98621.13
2018-11-01T14:42:40.164Z,98625.38
2018-11-01T14:45:09.460Z,98610.53
2018-11-01T14:47:38.765Z,98611.52
2018-11-01T14:50:07.949Z,98613.39
2018-11-01T14:52:36.795Z,98608.67
2018-11-01T14:55:06.188Z,98613.09
2018-11-01T14:57:34.832Z,98619.39
2018-11-01T15:00:02.282Z,98613.77
2018-11-01T15:02:30.804Z,98607.99
2018-11-01T15:04:59.310Z,98609.91
2018-11-01T15:07:27.805Z,98614.53
2018-11-01T15:09:56.307Z,98625.61
2018-11-01T15:12:26.041Z,98618.72
2018-11-01T15:14:54.473Z,98623.78
2018-11-01T15:17:23.671Z,98626.57
2018-11-01T15:19:52.178Z,98622.12
2018-11-01T15:22:20.684Z,98615.59
2018-11-01T15:24:49.216Z,98616.64
2018-11-01T15:27:19.978Z,98620.09
2018-11-01T15:29:48.733Z,98622.81
2018-11-01T15:32:22.288Z,98609.66
2018-11-01T15:34:51.073Z,98602.41
2018-11-01T15:37:19.638Z,98602.69
2018-11-01T15:39:48.136Z,98608.20
2018-11-01T15:42:16.696Z,98601.33
2018-11-01T15:44:46.032Z,98611.34
2018-11-01T15:47:14.574Z,98607.38
2018-11-01T15:49:43.241Z,98602.77
2018-11-01T15:52:11.890Z,98596.63
2018-11-01T15:54:41.265Z,98602.11
2018-11-01T15:57:09.878Z,98591.13
2018-11-01T15:59:38.509Z,98605.09
2018-11-01T16:02:07.689Z,98603.89
2018-11-01T16:04:36.166Z,98614.59
2018-11-01T16:07:04.673Z,98611.46
2018-11-01T16:09:33.699Z,98609.27
2018-11-01T16:12:02.240Z,98618.30
2018-11-01T16:14:30.678Z,98613.47
2018-11-01T16:16:59.599Z,98611.52
2018-11-01T16:19:28.148Z,98620.67
2018-11-01T16:21:56.552Z,98620.73
2018-11-01T16:24:25.090Z,98612.34
2018-11-01T16:26:53.704Z,98611.55
2018-11-01T16:29:22.199Z,98614.66
2018-11-01T16:31:50.690Z,98627.09
2018-11-01T16:34:19.504Z,98632.66
2018-11-01T16:36:48.108Z,98643.94
2018-11-01T16:39:16.502Z,98638.20
2018-11-01T16:41:45.573Z,98642.91
2018-11-01T16:44:14.009Z,98639.39
2018-11-01T16:46:42.640Z,98643.13
2018-11-01T16:49:11.372Z,98645.77
2018-11-01T16:51:39.894Z,98641.82
2018-11-01T16:54:08.824Z,98651.48
2018-11-01T16:56:37.374Z,98646.28
2018-11-01T16:59:06.665Z,98655.70
2018-11-01T17:01:35.174Z,98658.63
2018-11-01T17:04:03.631Z,98664.72
2018-11-01T17:06:32.089Z,98671.18
2018-11-01T17:09:00.884Z,98676.13
2018-11-01T17:11:29.297Z,98685.77
2018-11-01T17:13:57.751Z,98687.69
2018-11-01T17:16:26.315Z,98699.16
2018-11-01T17:18:55.441Z,98697.72
2018-11-01T17:21:23.963Z,98700.06
2018-11-01T17:23:52.425Z,98701.50
2018-11-01T17:26:20.890Z,98707.02
2018-11-01T17:28:49.411Z,98710.73
2018-11-01T17:31:17.898Z,98708.38
2018-11-01T17:33:46.477Z,98720.52
2018-11-01T17:36:14.922Z,98726.06
2018-11-01T17:38:43.389Z,98716.48
2018-11-01T17:41:12.262Z,98719.70
2018-11-01T17:43:41.247Z,98729.38
2018-11-01T17:46:10.066Z,98733.09
2018-11-01T17:48:39.170Z,98743.95
2018-11-01T17:51:07.677Z,98744.66
2018-11-01T17:53:37.503Z,98742.38
2018-11-01T17:56:06.095Z,98736.77
2018-11-01T17:58:35.504Z,98744.67
2018-11-01T18:01:04.329Z,98746.84
2018-11-01T18:03:32.793Z,98751.02
2018-11-01T18:06:01.291Z,98755.45
2018-11-01T18:08:30.572Z,98756.09
2018-11-01T18:10:58.980Z,98741.57
2018-11-01T18:13:27.406Z,98735.83
2018-11-01T18:15:55.901Z,98749.61
2018-11-01T18:18:24.391Z,98750.78
2018-11-01T18:20:53.804Z,98757.17
2018-11-01T18:23:22.580Z,98755.70
2018-11-01T18:25:51.409Z,98760.30
2018-11-01T18:28:20.610Z,98776.23
2018-11-01T18:30:49.069Z,98773.72
2018-11-01T18:33:17.646Z,98782.48
2018-11-01T18:35:47.022Z,98784.97
2018-11-01T18:38:15.499Z,98788.93
2018-11-01T18:40:43.956Z,98789.59
2018-11-01T18:43:12.409Z,98796.05
2018-11-01T18:45:40.872Z,98788.32
2018-11-01T18:48:09.387Z,98790.20
2018-11-01T18:50:38.474Z,98799.33
2018-11-01T18:53:07.717Z,98801.34
2018-11-01T18:55:36.247Z,98801.16
2018-11-01T18:58:05.544Z,98812.77
2018-11-01T19:00:34.033Z,98805.94
2018-11-01T19:03:02.487Z,98803.46
2018-11-01T19:05:31.027Z,98796.80
2018-11-01T19:07:59.483Z,98797.16
2018-11-01T19:10:28.029Z,98803.78
2018-11-01T19:12:56.961Z,98807.62
2018-11-01T19:15:25.495Z,98811.94
2018-11-01T19:17:54.013Z,98818.65
2018-11-01T19:20:22.580Z,98817.57
2018-11-01T19:22:51.109Z,98816.60
2018-11-01T19:25:19.654Z,98807.02
2018-11-01T19:27:48.165Z,98812.55
2018-11-01T19:30:16.670Z,98835.58
2018-11-01T19:32:45.211Z,98842.73
2018-11-01T19:35:14.369Z,98834.00
2018-11-01T19:37:42.849Z,98819.48
2018-11-01T19:40:13.685Z,98833.09
2018-11-01T19:42:42.497Z,98843.08
2018-11-01T19:45:11.839Z,98846.33
2018-11-01T19:47:40.381Z,98849.56
2018-11-01T19:50:10.833Z,98857.22
2018-11-01T19:52:39.341Z,98855.55
2018-11-01T19:55:08.556Z,98859.68
2018-11-01T19:57:37.145Z,98867.14
2018-11-01T20:00:07.640Z,98874.29
2018-11-01T20:02:36.195Z,98874.17
2018-11-01T20:05:04.883Z,98882.80
2018-11-01T20:07:36.186Z,98880.12
2018-11-01T20:10:05.078Z,98882.79
2018-11-01T20:12:33.547Z,98879.09
2018-11-01T20:15:02.029Z,98881.34
2018-11-01T20:17:30.606Z,98885.55
2018-11-01T20:19:59.165Z,98893.36
2018-11-01T20:22:27.641Z,98902.09
2018-11-01T20:24:56.746Z,98902.67
2018-11-01T20:27:25.572Z,98903.83
2018-11-01T20:29:54.105Z,98907.34
2018-11-01T20:32:22.597Z,98907.53
2018-11-01T20:34:51.325Z,98913.52
2018-11-01T20:37:19.843Z,98907.88
2018-11-01T20:39:48.376Z,98912.73
2018-11-01T20:42:16.841Z,98917.09
2018-11-01T20:44:46.054Z,98926.00
2018-11-01T20:47:14.539Z,98928.88
2018-11-01T20:49:43.028Z,98933.37
2018-11-01T20:52:11.516Z,98940.30
2018-11-01T20:54:40.029Z,98944.50
2018-11-01T20:57:09.267Z,98940.70
2018-11-01T20:59:37.724Z,98945.37
2018-11-01T21:02:06.298Z,98945.03
2018-11-01T21:04:34.836Z,98949.44
2018-11-01T21:07:03.356Z,98949.86
2018-11-01T21:09:31.891Z,98955.59
2018-11-01T21:12:00.513Z,98950.19
2018-11-01T21:14:28.864Z,98954.59
2018-11-01T21:16:57.473Z,98961.31
2018-11-01T21:19:26.697Z,98966.11
2018-11-01T21:21:55.241Z,98969.46
2018-11-01T21:24:26.150Z,98968.51
2018-11-01T21:26:55.622Z,98969.88
2018-11-01T21:29:24.115Z,98973.39
2018-11-01T21:31:52.651Z,98976.39
2018-11-01T21:34:21.092Z,98975.36
2018-11-01T21:36:49.604Z,98976.94
2018-11-01T21:39:18.943Z,98990.62
2018-11-01T21:41:47.497Z,99001.97
2018-11-01T21:44:15.944Z,99004.86
2018-11-01T21:46:45.403Z,99010.17
2018-11-01T21:49:13.924Z,99005.02
2018-11-01T21:51:42.404Z,98999.91
2018-11-01T21:54:10.857Z,98985.45
2018-11-01T21:56:39.418Z,98982.33
2018-11-01T21:59:07.843Z,98975.70
2018-11-01T22:01:36.448Z,98971.16
2018-11-01T22:04:05.316Z,98976.59
2018-11-01T22:06:33.801Z,98969.24
2018-11-01T22:09:02.480Z,98955.08
2018-11-01T22:11:30.968Z,98947.59
2018-11-01T22:13:59.476Z,98939.42
2018-11-01T22:16:28.657Z,98952.20
2018-11-01T22:18:57.219Z,98948.27
2018-11-01T22:21:26.492Z,98936.58
2018-11-01T22:23:54.995Z,98938.33
2018-11-01T22:26:23.592Z,98961.22
2018-11-01T22:28:52.096Z,98962.63
2018-11-01T22:31:21.343Z,98961.94
2018-11-01T22:33:50.372Z,98940.42
2018-11-01T22:36:18.791Z,98934.69
2018-11-01T22:38:47.442Z,98945.80
2018-11-01T22:41:15.772Z,98964.33
2018-11-01T22:43:44.260Z,98972.41
2018-11-01T22:46:12.725Z,98977.39
2018-11-01T22:48:41.304Z,98986.73
2018-11-01T22:51:09.736Z,99002.47
2018-11-01T22:53:38.265Z,99009.55
2018-11-01T22:56:07.529Z,99004.53
2018-11-01T22:58:36.449Z,99009.98
2018-11-01T23:01:05.433Z,99012.56
2018-11-01T23:03:34.080Z,99018.37
2018-11-01T23:06:02.543Z,99019.07
2018-11-01T23:08:31.005Z,99026.95
2018-11-01T23:10:59.464Z,99030.05
2018-11-01T23:13:28.001Z,99038.38
2018-11-01T23:15:56.514Z,99028.88
2018-11-01T23:18:26.000Z,99040.56
2018-11-01T23:20:54.515Z,99036.17
2018-11-01T23:23:24.733Z,99035.34
2018-11-01T23:25:53.284Z,99041.73
2018-11-01T23:28:22.046Z,99036.52
2018-11-01T23:30:50.493Z,99045.17
2018-11-01T23:33:19.590Z,99045.11
2018-11-01T23:35:48.104Z,99044.95
2018-11-01T23:38:21.898Z,99044.12
2018-11-01T23:40:56.256Z,99051.45
2018-11-01T23:43:30.381Z,99046.81
2018-11-01T23:46:04.222Z,99049.80
2018-11-01T23:48:34.148Z,99058.42
2018-11-01T23:51:19.155Z,99054.73
2018-11-01T23:53:49.816Z,99057.19
2018-11-01T23:56:18.862Z,99052.97
2018-11-01T23:58:47.469Z,99048.35
